Terminal Aerodrome Forecast
Issued by NWS State College, PA

Home | Current Version | Previous Version | Text Only | Print | Product List | Glossary On
Versions: 1 2 3 4 5 6 7 8 9 10 11 12 13 14 15 16 17 18 19 20 21 22 23 24 25 26
000
FTUS41 KCTP 172333
TAFMDT
TAF
KMDT 172333Z 1800/1824 VRB03KT P6SM VCSH BKN050 OVC100
     FM180900 VRB03KT 3SM BR SCT020 OVC030
     FM181400 24005KT 6SM BR BKN035 OVC050=

USA.gov is the U.S. government's official web portal to all federal, state and local government web resources and services.